sensor_id;sensor_type;location;lat;lon;timestamp;pressure;altitude;pressure_sealevel;temperature;humidity
33795;BME280;51430;52.242;21.118;2024-01-07T00:00:39;100484.62;;;-3.97;78.69
33795;BME280;51430;52.242;21.118;2024-01-07T00:07:27;100488.70;;;-4.09;79.21
33795;BME280;51430;52.242;21.118;2024-01-07T00:09:53;100481.60;;;-4.00;79.19
33795;BME280;51430;52.242;21.118;2024-01-07T00:12:20;100486.46;;;-3.95;78.84
33795;BME280;51430;52.242;21.118;2024-01-07T00:14:47;100488.74;;;-4.00;79.31
33795;BME280;51430;52.242;21.118;2024-01-07T00:17:13;100484.89;;;-3.92;79.09
33795;BME280;51430;52.242;21.118;2024-01-07T00:19:40;100487.52;;;-3.99;79.07
33795;BME280;51430;52.242;21.118;2024-01-07T00:22:09;100487.81;;;-3.95;79.02
33795;BME280;51430;52.242;21.118;2024-01-07T00:24:36;100490.65;;;-3.90;78.74
33795;BME280;51430;52.242;21.118;2024-01-07T00:27:03;100493.11;;;-3.96;78.67
33795;BME280;51430;52.242;21.118;2024-01-07T00:29:29;100493.96;;;-3.96;78.69
33795;BME280;51430;52.242;21.118;2024-01-07T00:31:57;100492.29;;;-3.99;78.90
33795;BME280;51430;52.242;21.118;2024-01-07T00:34:23;100500.48;;;-4.00;78.82
33795;BME280;51430;52.242;21.118;2024-01-07T00:36:50;100502.75;;;-4.03;79.26
33795;BME280;51430;52.242;21.118;2024-01-07T00:39:19;100502.55;;;-4.00;79.25
33795;BME280;51430;52.242;21.118;2024-01-07T00:41:45;100506.30;;;-4.02;79.48
33795;BME280;51430;52.242;21.118;2024-01-07T00:44:12;100504.08;;;-4.01;79.34
33795;BME280;51430;52.242;21.118;2024-01-07T00:46:38;100508.38;;;-4.05;79.42
33795;BME280;51430;52.242;21.118;2024-01-07T00:49:05;100508.38;;;-4.05;79.47
33795;BME280;51430;52.242;21.118;2024-01-07T00:51:32;100510.49;;;-3.97;79.42
33795;BME280;51430;52.242;21.118;2024-01-07T00:56:32;100514.66;;;-4.03;79.39
33795;BME280;51430;52.242;21.118;2024-01-07T00:59:00;100519.17;;;-4.22;79.71
33795;BME280;51430;52.242;21.118;2024-01-07T01:01:29;100515.67;;;-4.16;79.65
33795;BME280;51430;52.242;21.118;2024-01-07T01:03:57;100519.80;;;-4.18;79.55
33795;BME280;51430;52.242;21.118;2024-01-07T01:06:26;100522.13;;;-4.13;79.69
33795;BME280;51430;52.242;21.118;2024-01-07T01:08:54;100523.41;;;-4.08;79.52
33795;BME280;51430;52.242;21.118;2024-01-07T01:11:22;100524.45;;;-4.10;79.39
33795;BME280;51430;52.242;21.118;2024-01-07T01:13:50;100521.59;;;-4.12;79.51
33795;BME280;51430;52.242;21.118;2024-01-07T01:16:18;100524.61;;;-4.09;79.35
33795;BME280;51430;52.242;21.118;2024-01-07T01:18:50;100525.69;;;-4.13;79.32
33795;BME280;51430;52.242;21.118;2024-01-07T01:21:18;100525.25;;;-4.19;79.44
33795;BME280;51430;52.242;21.118;2024-01-07T01:23:46;100528.30;;;-4.17;79.78
33795;BME280;51430;52.242;21.118;2024-01-07T01:26:15;100531.17;;;-4.17;79.93
33795;BME280;51430;52.242;21.118;2024-01-07T01:28:43;100526.91;;;-4.16;79.85
33795;BME280;51430;52.242;21.118;2024-01-07T01:31:14;100528.08;;;-4.14;79.66
33795;BME280;51430;52.242;21.118;2024-01-07T01:33:42;100528.52;;;-4.21;79.68
33795;BME280;51430;52.242;21.118;2024-01-07T01:36:11;100529.86;;;-4.19;79.86
33795;BME280;51430;52.242;21.118;2024-01-07T01:38:38;100526.46;;;-4.19;79.73
33795;BME280;51430;52.242;21.118;2024-01-07T01:41:06;100519.69;;;-4.22;79.89
33795;BME280;51430;52.242;21.118;2024-01-07T01:43:38;100521.15;;;-4.30;80.40
33795;BME280;51430;52.242;21.118;2024-01-07T01:46:06;100520.23;;;-4.25;80.42
33795;BME280;51430;52.242;21.118;2024-01-07T01:48:35;100518.96;;;-4.20;80.43
33795;BME280;51430;52.242;21.118;2024-01-07T01:51:04;100518.91;;;-4.27;80.52
33795;BME280;51430;52.242;21.118;2024-01-07T01:53:32;100516.27;;;-4.21;80.93
33795;BME280;51430;52.242;21.118;2024-01-07T01:56:01;100517.22;;;-4.16;80.82
33795;BME280;51430;52.242;21.118;2024-01-07T01:58:32;100513.56;;;-4.11;80.54
33795;BME280;51430;52.242;21.118;2024-01-07T02:01:00;100517.10;;;-4.07;80.73
33795;BME280;51430;52.242;21.118;2024-01-07T02:03:28;100517.50;;;-3.99;80.91
33795;BME280;51430;52.242;21.118;2024-01-07T02:05:57;100514.54;;;-3.94;80.35
33795;BME280;51430;52.242;21.118;2024-01-07T02:08:25;100519.04;;;-3.99;80.77
33795;BME280;51430;52.242;21.118;2024-01-07T02:10:54;100520.27;;;-3.90;81.41
33795;BME280;51430;52.242;21.118;2024-01-07T02:13:22;100518.69;;;-3.87;81.09
33795;BME280;51430;52.242;21.118;2024-01-07T02:15:50;100518.83;;;-3.85;80.92
33795;BME280;51430;52.242;21.118;2024-01-07T02:18:18;100512.51;;;-3.84;80.93
33795;BME280;51430;52.242;21.118;2024-01-07T02:20:46;100514.68;;;-3.93;80.92
33795;BME280;51430;52.242;21.118;2024-01-07T02:23:15;100512.67;;;-3.95;80.98
33795;BME280;51430;52.242;21.118;2024-01-07T02:25:42;100505.70;;;-3.84;80.81
33795;BME280;51430;52.242;21.118;2024-01-07T02:28:12;100511.55;;;-3.89;80.30
33795;BME280;51430;52.242;21.118;2024-01-07T02:30:40;100517.64;;;-3.98;80.50
33795;BME280;51430;52.242;21.118;2024-01-07T02:33:08;100514.98;;;-4.02;80.13
33795;BME280;51430;52.242;21.118;2024-01-07T02:35:38;100514.48;;;-4.03;80.66
33795;BME280;51430;52.242;21.118;2024-01-07T02:38:06;100510.43;;;-3.93;80.25
33795;BME280;51430;52.242;21.118;2024-01-07T02:40:34;100507.74;;;-3.95;80.37
33795;BME280;51430;52.242;21.118;2024-01-07T02:43:02;100505.27;;;-3.89;80.42
33795;BME280;51430;52.242;21.118;2024-01-07T02:45:30;100506.92;;;-3.86;80.30
33795;BME280;51430;52.242;21.118;2024-01-07T02:47:58;100506.19;;;-3.82;80.69
33795;BME280;51430;52.242;21.118;2024-01-07T02:50:26;100504.19;;;-3.74;80.39
33795;BME280;51430;52.242;21.118;2024-01-07T02:52:54;100507.92;;;-3.85;79.77
33795;BME280;51430;52.242;21.118;2024-01-07T02:55:24;100515.84;;;-4.03;79.96
33795;BME280;51430;52.242;21.118;2024-01-07T02:57:53;100518.48;;;-3.97;80.30
33795;BME280;51430;52.242;21.118;2024-01-07T03:00:21;100517.64;;;-3.85;79.94
33795;BME280;51430;52.242;21.118;2024-01-07T03:02:50;100514.59;;;-3.86;79.88
33795;BME280;51430;52.242;21.118;2024-01-07T03:05:18;100515.17;;;-3.92;79.87
33795;BME280;51430;52.242;21.118;2024-01-07T03:07:46;100517.98;;;-3.97;79.83
33795;BME280;51430;52.242;21.118;2024-01-07T03:10:14;100514.50;;;-3.92;79.62
33795;BME280;51430;52.242;21.118;2024-01-07T03:12:42;100518.17;;;-3.98;79.49
33795;BME280;51430;52.242;21.118;2024-01-07T03:15:10;100515.86;;;-4.03;79.35
33795;BME280;51430;52.242;21.118;2024-01-07T03:17:38;100520.15;;;-3.93;79.35
33795;BME280;51430;52.242;21.118;2024-01-07T03:20:06;100515.25;;;-3.97;78.92
33795;BME280;51430;52.242;21.118;2024-01-07T03:22:37;100512.86;;;-3.97;78.91
33795;BME280;51430;52.242;21.118;2024-01-07T03:25:09;100510.44;;;-4.05;78.93
33795;BME280;51430;52.242;21.118;2024-01-07T03:27:37;100514.30;;;-4.14;79.18
33795;BME280;51430;52.242;21.118;2024-01-07T03:30:05;100518.58;;;-4.16;79.44
33795;BME280;51430;52.242;21.118;2024-01-07T03:32:34;100515.56;;;-4.32;79.45
33795;BME280;51430;52.242;21.118;2024-01-07T03:35:02;100517.54;;;-4.40;79.69
33795;BME280;51430;52.242;21.118;2024-01-07T03:37:33;100516.14;;;-4.24;79.98
33795;BME280;51430;52.242;21.118;2024-01-07T03:40:01;100517.85;;;-4.13;79.20
33795;BME280;51430;52.242;21.118;2024-01-07T03:42:31;100514.92;;;-4.10;78.60
33795;BME280;51430;52.242;21.118;2024-01-07T03:45:00;100515.81;;;-4.12;78.42
33795;BME280;51430;52.242;21.118;2024-01-07T03:47:43;100520.94;;;-4.14;78.61
33795;BME280;51430;52.242;21.118;2024-01-07T03:50:11;100523.20;;;-4.31;79.11
33795;BME280;51430;52.242;21.118;2024-01-07T03:52:40;100524.02;;;-4.16;79.41
33795;BME280;51430;52.242;21.118;2024-01-07T03:55:08;100528.10;;;-4.03;79.32
33795;BME280;51430;52.242;21.118;2024-01-07T03:57:36;100529.88;;;-3.96;78.72
33795;BME280;51430;52.242;21.118;2024-01-07T04:00:05;100529.00;;;-4.19;78.56
33795;BME280;51430;52.242;21.118;2024-01-07T04:02:33;100531.77;;;-4.24;78.76
33795;BME280;51430;52.242;21.118;2024-01-07T04:05:01;100534.48;;;-4.21;78.50
33795;BME280;51430;52.242;21.118;2024-01-07T04:07:44;100533.87;;;-4.27;78.22
33795;BME280;51430;52.242;21.118;2024-01-07T04:10:12;100531.08;;;-4.49;79.19
33795;BME280;51430;52.242;21.118;2024-01-07T04:12:40;100533.55;;;-4.29;78.86
33795;BME280;51430;52.242;21.118;2024-01-07T04:15:08;100527.70;;;-4.23;78.59
33795;BME280;51430;52.242;21.118;2024-01-07T04:17:36;100531.59;;;-4.22;78.41
33795;BME280;51430;52.242;21.118;2024-01-07T04:20:06;100527.83;;;-4.34;78.69
33795;BME280;51430;52.242;21.118;2024-01-07T04:22:34;100527.59;;;-4.29;78.53
33795;BME280;51430;52.242;21.118;2024-01-07T04:25:02;100527.85;;;-4.22;78.01
33795;BME280;51430;52.242;21.118;2024-01-07T04:27:30;100529.09;;;-4.25;77.86
33795;BME280;51430;52.242;21.118;2024-01-07T04:29:58;100532.91;;;-4.19;77.61
33795;BME280;51430;52.242;21.118;2024-01-07T04:32:26;100531.98;;;-4.26;77.89
33795;BME280;51430;52.242;21.118;2024-01-07T04:34:54;100530.30;;;-4.27;77.57
33795;BME280;51430;52.242;21.118;2024-01-07T04:37:22;100534.39;;;-4.41;77.92
33795;BME280;51430;52.242;21.118;2024-01-07T04:39:50;100533.42;;;-4.32;78.11
33795;BME280;51430;52.242;21.118;2024-01-07T04:42:18;100537.66;;;-4.30;78.11
33795;BME280;51430;52.242;21.118;2024-01-07T04:44:46;100537.14;;;-4.44;78.05
33795;BME280;51430;52.242;21.118;2024-01-07T04:47:27;100541.18;;;-4.40;78.37
33795;BME280;51430;52.242;21.118;2024-01-07T04:49:57;100539.35;;;-4.44;78.50
33795;BME280;51430;52.242;21.118;2024-01-07T04:52:26;100536.70;;;-4.35;78.52
33795;BME280;51430;52.242;21.118;2024-01-07T04:54:54;100538.04;;;-4.34;78.53
33795;BME280;51430;52.242;21.118;2024-01-07T04:57:22;100537.61;;;-4.26;78.06
33795;BME280;51430;52.242;21.118;2024-01-07T04:59:50;100539.75;;;-4.35;78.00
33795;BME280;51430;52.242;21.118;2024-01-07T05:02:19;100539.48;;;-4.26;78.30
33795;BME280;51430;52.242;21.118;2024-01-07T05:04:48;100540.54;;;-4.17;77.94
33795;BME280;51430;52.242;21.118;2024-01-07T05:07:16;100541.27;;;-4.19;77.90
33795;BME280;51430;52.242;21.118;2024-01-07T05:09:44;100542.96;;;-4.19;77.61
33795;BME280;51430;52.242;21.118;2024-01-07T05:12:11;100541.36;;;-4.27;77.68
33795;BME280;51430;52.242;21.118;2024-01-07T05:14:40;100544.19;;;-4.36;77.83
33795;BME280;51430;52.242;21.118;2024-01-07T05:17:10;100549.08;;;-4.46;77.87
33795;BME280;51430;52.242;21.118;2024-01-07T05:19:41;100549.75;;;-4.46;77.86
33795;BME280;51430;52.242;21.118;2024-01-07T05:22:10;100554.17;;;-4.46;77.88
33795;BME280;51430;52.242;21.118;2024-01-07T05:24:38;100555.87;;;-4.45;77.85
33795;BME280;51430;52.242;21.118;2024-01-07T05:27:08;100556.36;;;-4.44;77.82
33795;BME280;51430;52.242;21.118;2024-01-07T05:29:36;100558.33;;;-4.38;77.43
33795;BME280;51430;52.242;21.118;2024-01-07T05:32:05;100555.80;;;-4.53;77.66
33795;BME280;51430;52.242;21.118;2024-01-07T05:34:33;100558.23;;;-4.44;77.76
33795;BME280;51430;52.242;21.118;2024-01-07T05:37:01;100559.15;;;-4.49;77.53
33795;BME280;51430;52.242;21.118;2024-01-07T05:39:29;100562.23;;;-4.51;77.97
33795;BME280;51430;52.242;21.118;2024-01-07T05:41:57;100562.83;;;-4.44;77.51
33795;BME280;51430;52.242;21.118;2024-01-07T05:44:24;100564.36;;;-4.44;77.47
33795;BME280;51430;52.242;21.118;2024-01-07T05:46:56;100569.33;;;-4.47;77.39
33795;BME280;51430;52.242;21.118;2024-01-07T05:49:24;100574.59;;;-4.46;77.36
33795;BME280;51430;52.242;21.118;2024-01-07T05:51:52;100574.23;;;-4.59;77.61
33795;BME280;51430;52.242;21.118;2024-01-07T05:54:20;100573.34;;;-4.54;77.85
33795;BME280;51430;52.242;21.118;2024-01-07T05:56:50;100566.46;;;-4.49;77.45
33795;BME280;51430;52.242;21.118;2024-01-07T05:59:18;100563.58;;;-4.49;76.96
33795;BME280;51430;52.242;21.118;2024-01-07T06:01:47;100561.35;;;-4.48;77.16
33795;BME280;51430;52.242;21.118;2024-01-07T06:04:15;100560.45;;;-4.45;77.31
33795;BME280;51430;52.242;21.118;2024-01-07T06:06:43;100566.31;;;-4.50;77.18
33795;BME280;51430;52.242;21.118;2024-01-07T06:09:11;100567.66;;;-4.49;77.46
33795;BME280;51430;52.242;21.118;2024-01-07T06:11:40;100568.58;;;-4.41;77.20
33795;BME280;51430;52.242;21.118;2024-01-07T06:14:08;100570.36;;;-4.48;77.17
33795;BME280;51430;52.242;21.118;2024-01-07T06:16:36;100571.50;;;-4.43;77.52
33795;BME280;51430;52.242;21.118;2024-01-07T06:19:03;100571.25;;;-4.38;77.55
33795;BME280;51430;52.242;21.118;2024-01-07T06:21:32;100570.89;;;-4.34;77.18
33795;BME280;51430;52.242;21.118;2024-01-07T06:24:01;100566.98;;;-4.36;77.15
33795;BME280;51430;52.242;21.118;2024-01-07T06:26:29;100571.18;;;-4.45;77.18
33795;BME280;51430;52.242;21.118;2024-01-07T06:28:56;100571.80;;;-4.39;76.94
33795;BME280;51430;52.242;21.118;2024-01-07T06:31:24;100579.98;;;-4.42;77.22
33795;BME280;51430;52.242;21.118;2024-01-07T06:33:53;100585.73;;;-4.39;77.21
33795;BME280;51430;52.242;21.118;2024-01-07T06:36:24;100589.32;;;-4.39;76.98
33795;BME280;51430;52.242;21.118;2024-01-07T06:38:52;100592.88;;;-4.40;76.75
33795;BME280;51430;52.242;21.118;2024-01-07T06:41:20;100594.77;;;-4.56;77.22
33795;BME280;51430;52.242;21.118;2024-01-07T06:43:48;100600.80;;;-4.49;77.47
33795;BME280;51430;52.242;21.118;2024-01-07T06:46:17;100601.66;;;-4.49;76.93
33795;BME280;51430;52.242;21.118;2024-01-07T06:48:45;100603.71;;;-4.49;76.88
33795;BME280;51430;52.242;21.118;2024-01-07T06:51:17;100605.35;;;-4.58;76.92
33795;BME280;51430;52.242;21.118;2024-01-07T06:53:45;100604.66;;;-4.57;77.29
33795;BME280;51430;52.242;21.118;2024-01-07T06:56:13;100610.60;;;-4.56;76.90
33795;BME280;51430;52.242;21.118;2024-01-07T06:58:42;100610.91;;;-4.54;76.89
33795;BME280;51430;52.242;21.118;2024-01-07T07:01:10;100614.75;;;-4.63;76.98
33795;BME280;51430;52.242;21.118;2024-01-07T07:03:39;100616.50;;;-4.52;77.00
33795;BME280;51430;52.242;21.118;2024-01-07T07:06:08;100618.10;;;-4.59;76.95
33795;BME280;51430;52.242;21.118;2024-01-07T07:08:35;100619.25;;;-4.55;76.79
33795;BME280;51430;52.242;21.118;2024-01-07T07:11:04;100616.30;;;-4.48;76.79
33795;BME280;51430;52.242;21.118;2024-01-07T07:13:32;100620.75;;;-4.52;76.71
33795;BME280;51430;52.242;21.118;2024-01-07T07:19:20;100632.33;;;-4.52;76.56
33795;BME280;51430;52.242;21.118;2024-01-07T07:21:49;100630.83;;;-4.40;76.66
33795;BME280;51430;52.242;21.118;2024-01-07T07:24:18;100626.69;;;-4.36;76.24
33795;BME280;51430;52.242;21.118;2024-01-07T07:26:46;100627.62;;;-4.42;76.41
33795;BME280;51430;52.242;21.118;2024-01-07T07:29:14;100633.77;;;-4.44;76.29
33795;BME280;51430;52.242;21.118;2024-01-07T07:31:42;100626.89;;;-4.38;75.76
33795;BME280;51430;52.242;21.118;2024-01-07T07:34:10;100626.38;;;-4.38;75.62
33795;BME280;51430;52.242;21.118;2024-01-07T07:36:40;100630.35;;;-4.28;75.73
33795;BME280;51430;52.242;21.118;2024-01-07T07:39:09;100631.31;;;-4.23;75.36
33795;BME280;51430;52.242;21.118;2024-01-07T07:41:38;100632.72;;;-4.27;75.69
33795;BME280;51430;52.242;21.118;2024-01-07T07:44:06;100636.05;;;-4.21;75.20
33795;BME280;51430;52.242;21.118;2024-01-07T07:46:34;100632.83;;;-4.22;75.18
33795;BME280;51430;52.242;21.118;2024-01-07T07:49:02;100635.20;;;-4.21;75.48
33795;BME280;51430;52.242;21.118;2024-01-07T07:51:31;100640.80;;;-4.18;75.27
33795;BME280;51430;52.242;21.118;2024-01-07T07:53:59;100646.54;;;-4.15;75.42
33795;BME280;51430;52.242;21.118;2024-01-07T07:56:28;100646.11;;;-4.08;75.21
33795;BME280;51430;52.242;21.118;2024-01-07T07:58:57;100645.56;;;-4.05;75.21
33795;BME280;51430;52.242;21.118;2024-01-07T08:01:29;100645.81;;;-3.96;74.78
33795;BME280;51430;52.242;21.118;2024-01-07T08:03:57;100648.39;;;-3.84;74.62
33795;BME280;51430;52.242;21.118;2024-01-07T08:06:25;100646.52;;;-3.86;74.25
33795;BME280;51430;52.242;21.118;2024-01-07T08:08:54;100647.27;;;-3.76;74.13
33795;BME280;51430;52.242;21.118;2024-01-07T08:11:23;100649.02;;;-3.68;73.97
33795;BME280;51430;52.242;21.118;2024-01-07T08:13:51;100654.02;;;-3.48;73.86
33795;BME280;51430;52.242;21.118;2024-01-07T08:16:20;100657.98;;;-3.39;73.14
33795;BME280;51430;52.242;21.118;2024-01-07T08:18:48;100664.23;;;-3.36;73.44
33795;BME280;51430;52.242;21.118;2024-01-07T08:21:18;100667.92;;;-3.43;73.48
33795;BME280;51430;52.242;21.118;2024-01-07T08:23:48;100667.70;;;-3.39;72.98
33795;BME280;51430;52.242;21.118;2024-01-07T08:26:20;100670.08;;;-3.39;72.78
33795;BME280;51430;52.242;21.118;2024-01-07T08:28:54;100676.00;;;-3.37;72.34
33795;BME280;51430;52.242;21.118;2024-01-07T08:31:23;100677.73;;;-3.50;72.69
33795;BME280;51430;52.242;21.118;2024-01-07T08:33:51;100679.17;;;-3.56;73.42
33795;BME280;51430;52.242;21.118;2024-01-07T08:36:20;100683.38;;;-3.52;73.10
33795;BME280;51430;52.242;21.118;2024-01-07T08:38:48;100684.77;;;-3.53;73.08
33795;BME280;51430;52.242;21.118;2024-01-07T08:41:17;100683.36;;;-3.51;73.05
33795;BME280;51430;52.242;21.118;2024-01-07T08:43:46;100680.60;;;-3.35;72.86
33795;BME280;51430;52.242;21.118;2024-01-07T08:46:14;100681.48;;;-3.38;72.55
33795;BME280;51430;52.242;21.118;2024-01-07T08:48:42;100686.70;;;-3.21;72.66
33795;BME280;51430;52.242;21.118;2024-01-07T08:51:11;100686.74;;;-3.14;71.81
33795;BME280;51430;52.242;21.118;2024-01-07T08:56:06;100689.93;;;-3.21;71.63
33795;BME280;51430;52.242;21.118;2024-01-07T08:58:36;100688.65;;;-3.52;72.14
33795;BME280;51430;52.242;21.118;2024-01-07T13:05:26;100713.77;;;-3.71;68.03
33795;BME280;51430;52.242;21.118;2024-01-07T23:05:22;101224.45;;;-8.26;67.30
33795;BME280;51430;52.242;21.118;2024-01-07T23:18:45;101234.11;;;-8.10;66.87
33795;BME280;51430;52.242;21.118;2024-01-07T23:32:29;101239.79;;;-8.03;66.56
33795;BME280;51430;52.242;21.118;2024-01-07T23:35:07;101242.24;;;-7.96;66.71
